Map

Track Data

SID SEASON NUMBER BASIN SUBBASIN NAME ISO_TIME NATURE LAT LON WMO_WIND WMO_PRES WMO_AGENCY TRACK_TYPE DIST2LAND LANDFALL IFLAG USA_AGENCY USA_ATCF_ID USA_LAT USA_LON USA_RECORD USA_STATUS USA_WIND USA_PRES USA_SSHS USA_R34_NE USA_R34_SE USA_R34_SW USA_R34_NW USA_R50_NE USA_R50_SE USA_R50_SW USA_R50_NW USA_R64_NE USA_R64_SE USA_R64_SW USA_R64_NW USA_POCI USA_ROCI USA_RMW USA_EYE TOKYO_LAT TOKYO_LON TOKYO_GRADE TOKYO_WIND TOKYO_PRES TOKYO_R50_DIR TOKYO_R50_LONG TOKYO_R50_SHORT TOKYO_R30_DIR TOKYO_R30_LONG TOKYO_R30_SHORT TOKYO_LAND CMA_LAT CMA_LON CMA_CAT CMA_WIND CMA_PRES HKO_LAT HKO_LON HKO_CAT HKO_WIND HKO_PRES NEWDELHI_LAT NEWDELHI_LON NEWDELHI_GRADE NEWDELHI_WIND NEWDELHI_PRES NEWDELHI_CI NEWDELHI_DP NEWDELHI_POCI REUNION_LAT REUNION_LON REUNION_TYPE REUNION_WIND REUNION_PRES REUNION_TNUM REUNION_CI REUNION_RMW REUNION_R34_NE REUNION_R34_SE REUNION_R34_SW REUNION_R34_NW REUNION_R50_NE REUNION_R50_SE REUNION_R50_SW REUNION_R50_NW REUNION_R64_NE REUNION_R64_SE REUNION_R64_SW REUNION_R64_NW BOM_LAT BOM_LON BOM_TYPE BOM_WIND BOM_PRES BOM_TNUM BOM_CI BOM_RMW BOM_R34_NE BOM_R34_SE BOM_R34_SW BOM_R34_NW BOM_R50_NE BOM_R50_SE BOM_R50_SW BOM_R50_NW BOM_R64_NE BOM_R64_SE BOM_R64_SW BOM_R64_NW BOM_ROCI BOM_POCI BOM_EYE BOM_POS_METHOD BOM_PRES_METHOD NADI_LAT NADI_LON NADI_CAT NADI_WIND NADI_PRES WELLINGTON_LAT WELLINGTON_LON WELLINGTON_WIND WELLINGTON_PRES DS824_LAT DS824_LON DS824_STAGE DS824_WIND DS824_PRES TD9636_LAT TD9636_LON TD9636_STAGE TD9636_WIND TD9636_PRES TD9635_LAT TD9635_LON TD9635_WIND TD9635_PRES TD9635_ROCI NEUMANN_LAT NEUMANN_LON NEUMANN_CLASS NEUMANN_WIND NEUMANN_PRES MLC_LAT MLC_LON MLC_CLASS MLC_WIND MLC_PRES USA_GUST BOM_GUST BOM_GUST_PER REUNION_GUST REUNION_GUST_PER USA_SEAHGT USA_SEARAD_NE USA_SEARAD_SE USA_SEARAD_SW USA_SEARAD_NW STORM_SPEED STORM_DIR
1914168N11131 1914 14 WP MM NOT_NAMED 1914-06-17 10:00:00 NR 10.6000 130.500 main 496 486 __________O___ -1 10.6000 130.500 4 4 285
1914168N11131 1914 14 WP MM NOT_NAMED 1914-06-17 12:00:00 NR 10.6381 130.355 main 486 459 __________P___ -1 10.6381 130.355 4 5 285
1914168N11131 1914 14 WP MM NOT_NAMED 1914-06-17 15:00:00 NR 10.6997 130.129 main 459 443 __________P___ -1 10.6997 130.129 4 5 286
1914168N11131 1914 14 WP MM NOT_NAMED 1914-06-17 18:00:00 NR 10.7728 129.883 main 443 415 __________P___ -1 10.7728 129.883 4 5 288
1914168N11131 1914 14 WP MM NOT_NAMED 1914-06-17 21:00:00 NR 10.8642 129.603 main 415 404 __________P___ -1 10.8642 129.603 4 6 289
1914168N11131 1914 14 WP MM NOT_NAMED 1914-06-17 22:00:00 NR 10.9000 129.500 main 404 382 __________O___ -1 10.9000 129.500 4 7 290
1914168N11131 1914 14 WP MM NOT_NAMED 1914-06-18 00:00:00 NR 10.9803 129.279 main 382 338 __________P___ -1 10.9803 129.279 4 7 291
1914168N11131 1914 14 WP MM NOT_NAMED 1914-06-18 03:00:00 NR 11.1196 128.915 main 338 296 __________P___ -1 11.1196 128.915 4 8 292
1914168N11131 1914 14 WP MM NOT_NAMED 1914-06-18 06:00:00 NR 11.2758 128.527 main 296 255 __________P___ -1 11.2758 128.527 4 8 293
1914168N11131 1914 14 WP MM NOT_NAMED 1914-06-18 09:00:00 NR 11.4430 128.131 main 255 246 __________P___ -1 11.4430 128.131 4 8 293
1914168N11131 1914 14 WP MM NOT_NAMED 1914-06-18 10:00:00 NR 11.5000 128.000 main 246 228 __________O___ -1 11.5000 128.000 4 8 294
1914168N11131 1914 14 WP MM NOT_NAMED 1914-06-18 12:00:00 NR 11.6055 127.763 main 228 196 __________P___ -1 11.6055 127.763 4 8 295
1914168N11131 1914 14 WP MM NOT_NAMED 1914-06-18 15:00:00 NR 11.7700 127.408 main 196 162 __________P___ -1 11.7700 127.408 4 8 296
1914168N11131 1914 14 WP MM NOT_NAMED 1914-06-18 18:00:00 NR 11.9449 127.039 main 162 120 __________P___ -1 11.9449 127.039 4 8 296
1914168N11131 1914 14 WP MM NOT_NAMED 1914-06-18 21:00:00 NR 12.1336 126.642 main 120 108 __________P___ -1 12.1336 126.642 4 9 296
1914168N11131 1914 14 WP MM NOT_NAMED 1914-06-18 22:00:00 NR 12.2000 126.500 main 108 76 __________O___ -1 12.2000 126.500 4 10 295
1914168N11131 1914 14 WP MM NOT_NAMED 1914-06-19 00:00:00 NR 12.3360 126.193 main 76 40 __________P___ -1 12.3360 126.193 4 10 294
1914168N11131 1914 14 WP MM NOT_NAMED 1914-06-19 03:00:00 NR 12.5526 125.700 main 48 24 __________P___ -1 12.5526 125.700 4 11 294
1914168N11131 1914 14 WP MM NOT_NAMED 1914-06-19 06:00:00 NR 12.7813 125.186 main 33 33 __________P___ -1 12.7813 125.186 4 11 295
1914168N11131 1914 14 WP MM NOT_NAMED 1914-06-19 09:00:00 NR 13.0192 124.669 main 57 44 __________P___ -1 13.0192 124.669 4 11 296
1914168N11131 1914 14 WP MM NOT_NAMED 1914-06-19 10:00:00 NR 13.1000 124.500 main 44 24 __________O___ -1 13.1000 124.500 4 11 294
1914168N11131 1914 14 WP MM NOT_NAMED 1914-06-19 12:00:00 NR 13.2319 124.172 main 24 0 __________P___ -1 13.2319 124.172 4 10 293
1914168N11131 1914 14 WP MM NOT_NAMED 1914-06-19 15:00:00 NR 13.4357 123.686 main 0 0 __________P___ -1 13.4357 123.686 4 10 295
1914168N11131 1914 14 WP MM NOT_NAMED 1914-06-19 18:00:00 NR 13.6741 123.211 main 0 0 __________P___ -1 13.6741 123.211 4 11 301
1914168N11131 1914 14 WP MM NOT_NAMED 1914-06-19 21:00:00 NR 13.9785 122.750 main 0 0 __________P___ -1 13.9785 122.750 4 11 306
1914168N11131 1914 14 WP MM NOT_NAMED 1914-06-19 22:00:00 NR 14.1000 122.600 main 0 0 __________O___ -1 14.1000 122.600 4 12 312
1914168N11131 1914 14 WP MM NOT_NAMED 1914-06-20 00:00:00 NR 14.3740 122.295 main 24 21 __________P___ -1 14.3740 122.295 4 13 316
1914168N11131 1914 14 WP MM NOT_NAMED 1914-06-20 03:00:00 NR 14.8542 121.849 main 24 0 __________P___ -1 14.8542 121.849 4 13 321
1914168N11131 1914 14 WP MM NOT_NAMED 1914-06-20 06:00:00 NR 15.4007 121.424 main 0 0 __________P___ -1 15.4007 121.424 4 14 325
1914168N11131 1914 14 WP MM NOT_NAMED 1914-06-20 09:00:00 NR 15.9947 121.026 main 0 0 __________P___ -1 15.9947 121.026 4 14 328
1914168N11131 1914 14 WP MM NOT_NAMED 1914-06-20 10:00:00 NR 16.2000 120.900 main 0 0 __________O___ -1 16.2000 120.900 4 14 331
1914168N11131 1914 14 WP MM NOT_NAMED 1914-06-20 12:00:00 NR 16.6149 120.665 main 0 0 __________P___ -1 16.6149 120.665 4 14 333
1914168N11131 1914 14 WP MM NOT_NAMED 1914-06-20 15:00:00 NR 17.2693 120.339 main 15 10 __________P___ -1 17.2693 120.339 4 15 335
1914168N11131 1914 14 WP MM NOT_NAMED 1914-06-20 18:00:00 NR 17.9372 120.026 main 46 52 __________P___ -1 17.9372 120.026 4 15 336
1914168N11131 1914 14 WP MM NOT_NAMED 1914-06-20 21:00:00 NR 18.5904 119.710 main 97 97 __________P___ -1 18.5904 119.710 4 14 335
1914168N11131 1914 14 WP MM NOT_NAMED 1914-06-20 22:00:00 NR 18.8000 119.600 main 114 114 __________O___ -1 18.8000 119.600 4 14 330
1914168N11131 1914 14 WP MM NOT_NAMED 1914-06-21 00:00:00 NR 19.1949 119.335 main 163 163 __________P___ -1 19.1949 119.335 4 14 327
1914168N11131 1914 14 WP MM NOT_NAMED 1914-06-21 03:00:00 NR 19.7622 118.925 main 237 237 __________P___ -1 19.7622 118.925 4 13 326
1914168N11131 1914 14 WP MM NOT_NAMED 1914-06-21 06:00:00 NR 20.3046 118.533 main 289 279 __________P___ -1 20.3046 118.533 4 13 327
1914168N11131 1914 14 WP MM NOT_NAMED 1914-06-21 09:00:00 NR 20.8284 118.194 main 286 268 __________P___ -1 20.8284 118.194 4 12 330
1914168N11131 1914 14 WP MM NOT_NAMED 1914-06-21 10:00:00 NR 21.0000 118.100 main 268 229 __________O___ -1 21.0000 118.100 4 11 335
1914168N11131 1914 14 WP MM NOT_NAMED 1914-06-21 12:00:00 NR 21.3365 117.943 main 229 181 __________P___ -1 21.3365 117.943 4 11 340
1914168N11131 1914 14 WP MM NOT_NAMED 1914-06-21 15:00:00 NR 21.8289 117.771 main 181 140 __________P___ -1 21.8289 117.771 4 10 345
1914168N11131 1914 14 WP MM NOT_NAMED 1914-06-21 18:00:00 NR 22.3201 117.664 main 140 93 __________P___ -1 22.3201 117.664 4 10 351
1914168N11131 1914 14 WP MM NOT_NAMED 1914-06-21 21:00:00 NR 22.8256 117.609 main 93 75 __________P___ -1 22.8256 117.609 4 10 356
1914168N11131 1914 14 WP MM NOT_NAMED 1914-06-21 22:00:00 NR 23.0000 117.600 main 75 33 __________O___ -1 23.0000 117.600 4 11 356
1914168N11131 1914 14 WP MM NOT_NAMED 1914-06-22 00:00:00 NR 23.3766 117.569 main 33 0 __________P___ -1 23.3766 117.569 4 12 357
1914168N11131 1914 14 WP MM NOT_NAMED 1914-06-22 03:00:00 NR 23.9607 117.561 main 0 0 __________P___ -1 23.9607 117.561 4 12 0
1914168N11131 1914 14 WP MM NOT_NAMED 1914-06-22 06:00:00 NR 24.5485 117.595 main 0 0 __________P___ -1 24.5485 117.595 4 12 5
1914168N11131 1914 14 WP MM NOT_NAMED 1914-06-22 09:00:00 NR 25.1180 117.668 main 0 0 __________P___ -1 25.1180 117.668 4 11 7
1914168N11131 1914 14 WP MM NOT_NAMED 1914-06-22 10:00:00 NR 25.3000 117.700 main 0 0 __________O___ -1 25.3000 117.700 4 11 10
1914168N11131 1914 14 WP MM NOT_NAMED 1914-06-22 12:00:00 NR 25.6490 117.776 main 0 0 __________P___ -1 25.6490 117.776 4 10 13
1914168N11131 1914 14 WP MM NOT_NAMED 1914-06-22 15:00:00 NR 26.1406 117.913 main 0 0 __________P___ -1 26.1406 117.913 4 10 16
1914168N11131 1914 14 WP MM NOT_NAMED 1914-06-22 18:00:00 NR 26.6044 118.071 main 0 0 __________P___ -1 26.6044 118.071 4 10 18
1914168N11131 1914 14 WP MM NOT_NAMED 1914-06-22 21:00:00 NR 27.0522 118.242 main 0 0 __________P___ -1 27.0522 118.242 4 9 19
1914168N11131 1914 14 WP MM NOT_NAMED 1914-06-22 22:00:00 NR 27.2000 118.300 main 0 __________O___ -1 27.2000 118.300 4 9 21

Digital Typhoon Data and Search

About IBTrACS Database

This database is a web-friendly format of International Best Track Archive for Climate Stewardship (IBTrACS), a global best track data archive curated by NOAA dating back to 1842.

Updated: 2021-10-27